createdAt,value
2018-09-09T00:00:07.819Z,19.41
2018-09-09T00:05:17.523Z,19.42
2018-09-09T00:10:23.718Z,19.41
2018-09-09T00:15:26.994Z,19.46
2018-09-09T00:20:30.035Z,19.43
2018-09-09T00:25:33.335Z,19.46
2018-09-09T00:30:36.432Z,19.48
2018-09-09T00:35:51.707Z,19.49
2018-09-09T00:40:56.008Z,19.47
2018-09-09T00:45:59.029Z,19.44
2018-09-09T00:51:10.359Z,19.37
2018-09-09T00:56:18.438Z,19.25
2018-09-09T01:01:23.130Z,19.12
2018-09-09T01:06:26.179Z,18.99
2018-09-09T01:11:29.280Z,18.85
2018-09-09T01:16:32.497Z,18.73
2018-09-09T01:21:36.365Z,18.70
2018-09-09T01:26:43.553Z,18.67
2018-09-09T01:31:51.735Z,18.66
2018-09-09T01:36:56.262Z,18.64
2018-09-09T01:41:59.295Z,18.63
2018-09-09T01:47:04.386Z,18.60
2018-09-09T01:52:11.162Z,18.57
2018-09-09T01:57:19.416Z,18.51
2018-09-09T02:02:22.664Z,18.45
2018-09-09T02:07:25.734Z,18.36
2018-09-09T02:12:28.762Z,18.24
2018-09-09T02:17:32.198Z,18.08
2018-09-09T02:22:37.230Z,17.92
2018-09-09T02:27:42.450Z,17.86
2018-09-09T02:32:48.521Z,17.79
2018-09-09T02:37:52.483Z,17.62
2018-09-09T02:42:55.514Z,17.62
2018-09-09T02:47:58.539Z,17.61
2018-09-09T02:53:01.570Z,17.67
2018-09-09T02:58:04.746Z,17.67
2018-09-09T03:03:07.825Z,17.64
2018-09-09T03:08:15.380Z,17.57
2018-09-09T03:13:20.329Z,17.53
2018-09-09T03:18:24.306Z,17.44
2018-09-09T03:23:28.209Z,17.36
2018-09-09T03:28:32.026Z,17.32
2018-09-09T03:33:35.019Z,17.38
2018-09-09T03:38:41.298Z,17.44
2018-09-09T03:43:49.306Z,17.38
2018-09-09T03:48:54.287Z,17.29
2018-09-09T03:53:57.309Z,17.16
2018-09-09T03:59:00.562Z,17.10
2018-09-09T04:04:03.625Z,17.13
2018-09-09T04:09:12.127Z,17.17
2018-09-09T04:14:19.404Z,17.21
2018-09-09T04:19:23.985Z,17.30
2018-09-09T04:24:27.034Z,17.40
2018-09-09T04:29:30.030Z,17.37
2018-09-09T04:34:33.049Z,17.34
2018-09-09T04:39:36.186Z,17.42
2018-09-09T04:44:45.599Z,17.46
2018-09-09T04:49:53.653Z,17.53
2018-09-09T04:54:56.766Z,17.59
2018-09-09T04:59:59.808Z,17.58
2018-09-09T05:05:02.964Z,17.56
2018-09-09T05:10:06.143Z,17.54
2018-09-09T05:15:14.280Z,17.63
2018-09-09T05:20:20.242Z,17.66
2018-09-09T05:25:26.497Z,17.69
2018-09-09T05:30:30.904Z,17.75
2018-09-09T05:35:34.072Z,17.70
2018-09-09T05:40:45.144Z,17.64
2018-09-09T05:45:49.997Z,17.71
2018-09-09T05:50:53.110Z,17.79
2018-09-09T05:55:56.211Z,17.88
2018-09-09T06:00:59.418Z,17.99
2018-09-09T06:06:03.257Z,18.18
2018-09-09T06:11:08.156Z,18.44
2018-09-09T06:16:18.743Z,18.92
2018-09-09T06:21:23.838Z,19.38
2018-09-09T06:26:26.978Z,19.42
2018-09-09T06:31:30.091Z,19.26
2018-09-09T06:36:33.194Z,19.12
2018-09-09T06:41:37.348Z,19.04
2018-09-09T06:46:46.839Z,19.11
2018-09-09T06:51:52.572Z,19.69
2018-09-09T06:56:55.703Z,20.38
2018-09-09T07:01:58.740Z,20.83
2018-09-09T07:07:01.760Z,21.24
2018-09-09T07:12:06.184Z,21.70
2018-09-09T07:17:10.431Z,21.68
2018-09-09T07:22:15.093Z,21.61
2018-09-09T07:27:19.429Z,21.83
2018-09-09T07:32:22.624Z,22.21
2018-09-09T07:37:25.743Z,22.33
2018-09-09T07:42:29.898Z,22.20
2018-09-09T07:47:33.962Z,22.04
2018-09-09T07:52:37.130Z,22.12
2018-09-09T07:57:42.903Z,22.36
2018-09-09T08:02:48.548Z,22.65
2018-09-09T08:07:53.493Z,22.75
2018-09-09T08:12:56.589Z,22.65
2018-09-09T08:17:59.580Z,22.91
2018-09-09T08:23:02.650Z,23.33
2018-09-09T08:28:05.711Z,23.57
2018-09-09T08:33:08.736Z,23.55
2018-09-09T08:38:15.907Z,23.62
2018-09-09T08:43:20.765Z,23.81
2018-09-09T08:48:24.422Z,24.10
2018-09-09T08:53:27.429Z,24.44
2018-09-09T08:58:30.488Z,24.42
2018-09-09T09:03:34.530Z,24.36
2018-09-09T09:08:37.682Z,24.15
2018-09-09T09:13:47.013Z,24.39
2018-09-09T09:18:51.065Z,24.64
2018-09-09T09:23:54.074Z,24.72
2018-09-09T09:28:57.105Z,25.01
2018-09-09T09:34:00.147Z,24.86
2018-09-09T09:39:06.494Z,24.77
2018-09-09T09:44:15.264Z,24.91
2018-09-09T09:49:20.200Z,25.14
2018-09-09T09:54:24.123Z,25.05
2018-09-09T09:59:27.146Z,24.81
2018-09-09T10:04:30.162Z,24.78
2018-09-09T10:09:33.212Z,25.03
2018-09-09T10:14:37.098Z,25.03
2018-09-09T10:19:44.902Z,24.98
2018-09-09T10:24:50.321Z,25.43
2018-09-09T10:29:54.970Z,25.57
2018-09-09T10:35:04.437Z,26.00
2018-09-09T10:40:07.679Z,26.07
2018-09-09T10:45:10.713Z,25.67
2018-09-09T10:50:13.781Z,25.24
2018-09-09T10:55:16.834Z,25.11
2018-09-09T11:00:21.339Z,25.08
2018-09-09T11:05:24.733Z,25.49
2018-09-09T11:10:27.872Z,25.61
2018-09-09T11:15:30.904Z,25.75
2018-09-09T11:20:33.999Z,25.71
2018-09-09T11:25:38.686Z,25.81
2018-09-09T11:30:47.050Z,26.02
2018-09-09T11:35:50.859Z,26.04
2018-09-09T11:40:55.119Z,26.06
2018-09-09T11:45:58.584Z,26.23
2018-09-09T11:51:02.047Z,26.33
2018-09-09T11:56:05.473Z,26.26
2018-09-09T12:01:08.620Z,26.25
2018-09-09T12:06:11.675Z,26.17
2018-09-09T12:11:16.494Z,26.15
2018-09-09T12:16:24.994Z,26.22
2018-09-09T12:21:29.471Z,26.35
2018-09-09T12:26:32.534Z,26.84
2018-09-09T12:31:35.585Z,27.41
2018-09-09T12:36:38.644Z,27.69
2018-09-09T12:41:41.634Z,27.81
2018-09-09T12:46:52.599Z,27.82
2018-09-09T12:51:56.735Z,28.13
2018-09-09T12:57:01.443Z,28.18
2018-09-09T13:02:04.618Z,28.45
2018-09-09T13:07:07.724Z,28.84
2018-09-09T13:12:10.783Z,28.59
2018-09-09T13:17:13.819Z,28.25
2018-09-09T13:22:17.631Z,28.00
2018-09-09T13:27:22.868Z,28.08
2018-09-09T13:32:28.686Z,28.09
2018-09-09T13:37:32.208Z,27.92
2018-09-09T13:42:37.445Z,27.98
2018-09-09T13:47:41.414Z,28.04
2018-09-09T13:52:45.395Z,28.00
2018-09-09T13:57:49.216Z,28.45
2018-09-09T14:02:52.433Z,28.46
2018-09-09T14:07:55.478Z,28.56
2018-09-09T14:12:58.660Z,28.63
2018-09-09T14:18:01.694Z,28.55
2018-09-09T14:23:09.966Z,28.41
2018-09-09T14:28:14.596Z,28.30
2018-09-09T14:33:18.170Z,28.26
2018-09-09T14:38:21.362Z,28.30
2018-09-09T14:43:24.423Z,28.41
2018-09-09T14:48:27.489Z,28.45
2018-09-09T14:53:32.113Z,28.42
2018-09-09T14:58:42.749Z,28.46
2018-09-09T15:03:47.313Z,28.65
2018-09-09T15:08:50.469Z,28.83
2018-09-09T15:13:53.569Z,28.64
2018-09-09T15:18:56.616Z,28.47
2018-09-09T15:24:00.034Z,28.78
2018-09-09T15:29:07.360Z,28.61
2018-09-09T15:34:11.877Z,28.22
2018-09-09T15:39:17.081Z,28.25
2018-09-09T15:44:20.355Z,28.36
2018-09-09T15:49:23.415Z,28.31
2018-09-09T15:54:26.632Z,28.48
2018-09-09T15:59:29.887Z,28.47
2018-09-09T16:04:32.920Z,28.25
2018-09-09T16:09:41.916Z,28.27
2018-09-09T16:14:45.379Z,28.60
2018-09-09T16:19:49.010Z,28.81
2018-09-09T16:24:52.068Z,28.77
2018-09-09T16:29:55.110Z,28.73
2018-09-09T16:34:58.157Z,28.28
2018-09-09T16:40:02.900Z,27.82
2018-09-09T16:45:12.877Z,27.32
2018-09-09T16:50:18.285Z,26.99
2018-09-09T16:55:21.314Z,26.71
2018-09-09T17:00:24.350Z,26.48
2018-09-09T17:05:29.332Z,26.30
2018-09-09T17:10:35.772Z,26.16
2018-09-09T17:15:42.598Z,26.18
2018-09-09T17:20:45.624Z,26.25
2018-09-09T17:25:49.953Z,26.34
2018-09-09T17:30:52.973Z,26.29
2018-09-09T17:35:56.347Z,26.09
2018-09-09T17:40:59.378Z,25.85
2018-09-09T17:46:02.538Z,25.59
2018-09-09T17:51:09.756Z,25.32
2018-09-09T17:56:14.321Z,25.14
2018-09-09T18:01:19.551Z,24.99
2018-09-09T18:06:22.929Z,24.80
2018-09-09T18:11:26.251Z,24.69
2018-09-09T18:16:29.251Z,24.60
2018-09-09T18:21:32.258Z,24.57
2018-09-09T18:26:36.741Z,24.57
2018-09-09T18:31:42.310Z,24.50
2018-09-09T18:36:46.092Z,24.43
2018-09-09T18:41:49.506Z,24.35
2018-09-09T18:46:53.333Z,24.39
2018-09-09T18:51:56.334Z,23.92
2018-09-09T18:56:59.338Z,23.77
2018-09-09T19:02:02.362Z,23.63
2018-09-09T19:07:06.822Z,23.44
2018-09-09T19:12:12.153Z,23.26
2018-09-09T19:17:16.006Z,23.06
2018-09-09T19:22:19.105Z,22.86
2018-09-09T19:27:22.145Z,22.59
2018-09-09T19:32:25.385Z,22.49
2018-09-09T19:37:28.508Z,22.36
2018-09-09T19:42:36.940Z,22.23
2018-09-09T19:47:41.959Z,22.12
2018-09-09T19:52:45.503Z,22.03
2018-09-09T19:57:48.552Z,21.93
2018-09-09T20:02:51.667Z,21.87
2018-09-09T20:07:54.714Z,21.87
2018-09-09T20:12:57.708Z,21.78
2018-09-09T20:18:00.750Z,21.67
2018-09-09T20:23:03.822Z,21.62
2018-09-09T20:28:09.776Z,21.66
2018-09-09T20:33:13.921Z,21.68
2018-09-09T20:38:17.086Z,21.54
2018-09-09T20:43:20.165Z,21.39
2018-09-09T20:48:23.202Z,21.30
2018-09-09T20:53:26.582Z,21.21
2018-09-09T20:58:29.647Z,21.21
2018-09-09T21:03:32.734Z,21.11
2018-09-09T21:08:40.326Z,20.95
2018-09-09T21:13:44.473Z,20.79
2018-09-09T21:18:48.569Z,20.63
2018-09-09T21:23:51.619Z,20.49
2018-09-09T21:28:54.726Z,20.42
2018-09-09T21:33:58.607Z,20.31
2018-09-09T21:39:02.771Z,20.28
2018-09-09T21:44:08.117Z,20.28
2018-09-09T21:49:14.637Z,20.31
2018-09-09T21:54:18.979Z,20.29
2018-09-09T21:59:22.088Z,20.26
2018-09-09T22:04:25.114Z,20.28
2018-09-09T22:09:28.161Z,20.27
2018-09-09T22:14:31.177Z,20.13
2018-09-09T22:19:34.216Z,20.03
2018-09-09T22:24:41.050Z,19.91
2018-09-09T22:29:45.409Z,19.91
2018-09-09T22:34:49.196Z,19.91
2018-09-09T22:39:52.258Z,19.86
2018-09-09T22:44:55.313Z,19.80
2018-09-09T22:49:58.386Z,19.77
2018-09-09T22:55:01.426Z,19.72
2018-09-09T23:00:12.720Z,19.74
2018-09-09T23:05:16.917Z,19.69
2018-09-09T23:10:19.986Z,19.65
2018-09-09T23:15:26.428Z,19.58
2018-09-09T23:20:29.523Z,19.51
2018-09-09T23:25:32.569Z,19.38
2018-09-09T23:30:40.307Z,19.25
2018-09-09T23:35:44.440Z,19.24
2018-09-09T23:40:48.742Z,19.25
2018-09-09T23:45:51.779Z,19.22
2018-09-09T23:50:54.800Z,19.21
2018-09-09T23:55:57.887Z,19.20
